createdAt,value
2019-05-19T00:01:27.293Z,13.55
2019-05-19T00:03:38.237Z,13.52
2019-05-19T00:05:49.105Z,13.45
2019-05-19T00:07:59.949Z,13.38
2019-05-19T00:10:10.963Z,13.35
2019-05-19T00:12:21.933Z,13.31
2019-05-19T00:14:32.877Z,13.27
2019-05-19T00:16:43.757Z,13.26
2019-05-19T00:18:54.610Z,13.15
2019-05-19T00:21:05.471Z,13.13
2019-05-19T00:23:16.298Z,13.13
2019-05-19T00:25:27.214Z,13.08
2019-05-19T00:27:38.088Z,13.08
2019-05-19T00:29:48.922Z,13.09
2019-05-19T00:31:59.833Z,13.07
2019-05-19T00:34:10.657Z,13.03
2019-05-19T00:36:21.517Z,13.05
2019-05-19T00:38:32.375Z,13.05
2019-05-19T00:40:43.232Z,13.07
2019-05-19T00:42:54.068Z,13.11
2019-05-19T00:45:06.525Z,13.14
2019-05-19T00:47:17.479Z,13.15
2019-05-19T00:49:40.565Z,13.18
2019-05-19T00:51:41.294Z,13.13
2019-05-19T00:53:52.228Z,13.10
2019-05-19T00:56:03.298Z,13.08
2019-05-19T00:58:14.248Z,13.08
2019-05-19T01:00:25.105Z,13.10
2019-05-19T01:02:35.975Z,13.13
2019-05-19T01:04:46.804Z,13.13
2019-05-19T01:06:57.750Z,13.16
2019-05-19T01:09:08.738Z,13.16
2019-05-19T01:11:19.613Z,13.16
2019-05-19T01:13:30.447Z,13.17
2019-05-19T01:15:41.313Z,13.19
2019-05-19T01:17:52.178Z,13.18
2019-05-19T01:20:04.625Z,13.17
2019-05-19T01:22:15.664Z,13.17
2019-05-19T01:24:26.523Z,13.15
2019-05-19T01:26:37.689Z,13.15
2019-05-19T01:28:48.562Z,13.11
2019-05-19T01:30:59.506Z,13.06
2019-05-19T01:33:10.373Z,13.05
2019-05-19T01:35:21.313Z,13.04
2019-05-19T01:37:32.205Z,12.99
2019-05-19T01:39:43.126Z,13.01
2019-05-19T01:41:53.970Z,13.02
2019-05-19T01:44:04.932Z,13.07
2019-05-19T01:46:15.778Z,13.11
2019-05-19T01:48:28.142Z,13.14
2019-05-19T01:50:39.081Z,13.15
2019-05-19T01:52:50.070Z,13.11
2019-05-19T01:55:01.221Z,13.10
2019-05-19T01:57:12.140Z,13.07
2019-05-19T01:59:23.001Z,13.05
2019-05-19T02:01:33.850Z,12.99
2019-05-19T02:03:44.713Z,13.00
2019-05-19T02:05:55.542Z,12.99
2019-05-19T02:08:06.412Z,12.96
2019-05-19T02:10:17.349Z,12.95
2019-05-19T02:12:28.293Z,12.94
2019-05-19T02:14:39.159Z,12.93
2019-05-19T02:16:50.083Z,12.93
2019-05-19T02:19:00.955Z,12.91
2019-05-19T02:21:11.809Z,12.92
2019-05-19T02:23:22.672Z,12.93
2019-05-19T02:25:33.744Z,12.92
2019-05-19T02:27:44.587Z,12.90
2019-05-19T02:29:55.466Z,12.88
2019-05-19T02:32:06.301Z,12.91
2019-05-19T02:34:17.266Z,12.95
2019-05-19T02:36:28.207Z,12.99
2019-05-19T02:38:39.038Z,12.98
2019-05-19T02:40:53.530Z,12.96
2019-05-19T02:43:04.887Z,12.98
2019-05-19T02:45:15.953Z,12.94
2019-05-19T02:47:26.952Z,12.96
2019-05-19T02:49:38.008Z,12.96
2019-05-19T02:51:49.844Z,12.93
2019-05-19T02:54:02.490Z,12.90
2019-05-19T02:56:13.657Z,12.87
2019-05-19T02:58:24.912Z,12.85
2019-05-19T03:00:37.699Z,12.84
2019-05-19T03:02:48.545Z,12.86
2019-05-19T03:04:59.413Z,12.87
2019-05-19T03:07:10.377Z,12.88
2019-05-19T03:09:21.234Z,12.90
2019-05-19T03:11:32.095Z,12.90
2019-05-19T03:13:43.054Z,12.92
2019-05-19T03:15:53.914Z,12.93
2019-05-19T03:18:04.977Z,12.92
2019-05-19T03:20:15.935Z,12.94
2019-05-19T03:22:26.775Z,12.94
2019-05-19T03:24:37.610Z,12.96
2019-05-19T03:26:48.770Z,12.94
2019-05-19T03:28:59.654Z,12.92
2019-05-19T03:31:12.398Z,12.94
2019-05-19T03:33:25.157Z,12.97
2019-05-19T03:35:36.037Z,12.98
2019-05-19T03:37:46.864Z,13.00
2019-05-19T03:39:57.870Z,13.00
2019-05-19T03:42:10.483Z,13.00
2019-05-19T03:44:21.507Z,12.97
2019-05-19T03:46:32.352Z,13.00
2019-05-19T03:48:43.219Z,12.99
2019-05-19T03:50:54.057Z,12.94
2019-05-19T03:53:04.915Z,12.93
2019-05-19T03:55:15.858Z,12.90
2019-05-19T03:57:26.715Z,12.86
2019-05-19T03:59:37.551Z,12.86
2019-05-19T04:01:48.419Z,12.81
2019-05-19T04:03:59.270Z,12.81
2019-05-19T04:06:10.229Z,12.84
2019-05-19T04:08:21.097Z,12.84
2019-05-19T04:10:31.963Z,12.87
2019-05-19T04:12:42.832Z,12.89
2019-05-19T04:14:53.674Z,12.91
2019-05-19T04:17:04.531Z,12.94
2019-05-19T04:19:15.413Z,13.03
2019-05-19T04:21:26.257Z,13.03
2019-05-19T04:23:37.122Z,13.07
2019-05-19T04:25:48.065Z,13.05
2019-05-19T04:27:58.934Z,13.02
2019-05-19T04:30:10.006Z,12.99
2019-05-19T04:32:20.844Z,12.95
2019-05-19T04:34:31.723Z,13.00
2019-05-19T04:36:42.564Z,13.16
2019-05-19T04:38:53.411Z,13.32
2019-05-19T04:41:04.346Z,13.49
2019-05-19T04:43:15.205Z,13.62
2019-05-19T04:45:26.077Z,13.76
2019-05-19T04:47:37.045Z,13.94
2019-05-19T04:49:48.030Z,14.14
2019-05-19T04:52:06.514Z,14.30
2019-05-19T04:54:11.650Z,14.44
2019-05-19T04:56:22.495Z,14.62
2019-05-19T04:58:33.346Z,14.77
2019-05-19T05:00:44.249Z,14.84
2019-05-19T05:02:55.099Z,14.95
2019-05-19T05:05:06.073Z,15.10
2019-05-19T05:07:17.020Z,15.24
2019-05-19T05:09:27.868Z,15.40
2019-05-19T05:11:38.757Z,15.46
2019-05-19T05:13:49.605Z,15.62
2019-05-19T05:16:00.487Z,15.85
2019-05-19T05:18:11.449Z,15.98
2019-05-19T05:20:22.811Z,16.01
2019-05-19T05:22:33.745Z,16.08
2019-05-19T05:24:44.602Z,16.15
2019-05-19T05:26:55.446Z,16.19
2019-05-19T05:29:09.096Z,16.11
2019-05-19T05:31:19.965Z,16.10
2019-05-19T05:33:30.812Z,16.09
2019-05-19T05:35:41.701Z,16.04
2019-05-19T05:37:52.566Z,16.01
2019-05-19T05:40:05.746Z,16.13
2019-05-19T05:42:16.802Z,16.15
2019-05-19T05:44:27.650Z,16.17
2019-05-19T05:46:38.521Z,16.26
2019-05-19T05:48:49.356Z,16.68
2019-05-19T05:51:00.216Z,16.95
2019-05-19T05:53:11.081Z,17.15
2019-05-19T05:55:21.943Z,17.08
2019-05-19T05:57:32.814Z,16.94
2019-05-19T05:59:43.658Z,16.87
2019-05-19T06:01:54.533Z,16.89
2019-05-19T06:04:05.470Z,17.01
2019-05-19T06:06:16.458Z,17.04
2019-05-19T06:08:27.426Z,16.95
2019-05-19T06:10:38.291Z,16.83
2019-05-19T06:12:49.152Z,16.67
2019-05-19T06:15:00.108Z,16.64
2019-05-19T06:17:11.065Z,16.56
2019-05-19T06:19:21.932Z,16.48
2019-05-19T06:21:32.772Z,16.57
2019-05-19T06:23:43.643Z,16.47
2019-05-19T06:25:54.546Z,16.25
2019-05-19T06:28:05.389Z,16.24
2019-05-19T06:30:18.361Z,16.21
2019-05-19T06:32:33.890Z,16.10
2019-05-19T06:34:44.734Z,15.99
2019-05-19T06:36:55.610Z,15.97
2019-05-19T06:39:06.684Z,15.95
2019-05-19T06:41:17.749Z,16.00
2019-05-19T06:43:30.505Z,16.09
2019-05-19T06:45:41.360Z,16.26
2019-05-19T06:47:52.232Z,16.44
2019-05-19T06:50:04.957Z,16.54
2019-05-19T06:52:15.819Z,16.60
2019-05-19T06:54:26.655Z,16.64
2019-05-19T06:56:37.606Z,16.78
2019-05-19T06:58:48.472Z,16.92
2019-05-19T07:00:59.422Z,17.12
2019-05-19T07:03:10.433Z,17.17
2019-05-19T07:05:21.398Z,17.20
2019-05-19T07:07:32.269Z,17.26
2019-05-19T07:09:57.503Z,17.26
2019-05-19T07:11:55.864Z,17.15
2019-05-19T07:14:07.506Z,17.10
2019-05-19T07:16:18.347Z,17.06
2019-05-19T07:18:29.203Z,17.04
2019-05-19T07:20:40.054Z,16.96
2019-05-19T07:22:50.913Z,16.86
2019-05-19T07:25:02.760Z,16.76
2019-05-19T07:27:13.684Z,16.75
2019-05-19T07:29:24.571Z,16.82
2019-05-19T07:31:35.417Z,16.85
2019-05-19T07:33:46.276Z,16.87
2019-05-19T07:35:57.095Z,16.94
2019-05-19T07:38:07.949Z,17.11
2019-05-19T07:40:18.912Z,17.15
2019-05-19T07:42:29.790Z,17.27
2019-05-19T07:44:40.671Z,17.53
2019-05-19T07:46:51.524Z,17.75
2019-05-19T07:49:02.410Z,17.97
2019-05-19T07:51:13.365Z,18.25
2019-05-19T07:53:24.208Z,18.48
2019-05-19T07:55:35.196Z,18.57
2019-05-19T07:57:46.048Z,18.49
2019-05-19T07:59:56.901Z,18.31
2019-05-19T08:02:07.763Z,18.15
2019-05-19T08:04:18.625Z,18.16
2019-05-19T08:06:29.489Z,18.38
2019-05-19T08:08:40.337Z,18.48
2019-05-19T08:10:51.225Z,18.75
2019-05-19T08:13:02.156Z,19.05
2019-05-19T08:15:13.237Z,19.30
2019-05-19T08:17:25.992Z,19.36
2019-05-19T08:19:36.978Z,19.41
2019-05-19T08:21:47.923Z,19.35
2019-05-19T08:24:00.854Z,19.21
2019-05-19T08:26:11.695Z,19.09
2019-05-19T08:28:22.542Z,18.88
2019-05-19T08:30:33.601Z,18.76
2019-05-19T08:32:44.557Z,18.64
2019-05-19T08:34:55.510Z,18.52
2019-05-19T08:37:06.395Z,18.38
2019-05-19T08:39:17.234Z,18.23
2019-05-19T08:41:28.086Z,18.22
2019-05-19T08:43:38.931Z,18.12
2019-05-19T08:45:49.826Z,18.11
2019-05-19T08:48:00.769Z,18.11
2019-05-19T08:50:11.930Z,18.17
2019-05-19T08:52:22.802Z,18.44
2019-05-19T08:54:33.711Z,18.66
2019-05-19T08:56:44.572Z,18.73
2019-05-19T08:58:55.514Z,18.76
2019-05-19T09:01:06.359Z,19.01
2019-05-19T09:03:17.226Z,19.34
2019-05-19T09:05:28.089Z,19.58
2019-05-19T09:07:38.959Z,19.85
2019-05-19T09:09:49.790Z,20.01
2019-05-19T09:12:00.715Z,19.99
2019-05-19T09:14:11.753Z,20.06
2019-05-19T09:16:22.730Z,20.07
2019-05-19T09:18:33.591Z,19.99
2019-05-19T09:20:44.445Z,19.83
2019-05-19T09:22:55.420Z,19.79
2019-05-19T09:25:08.323Z,20.07
2019-05-19T09:27:19.175Z,20.50
2019-05-19T09:29:30.157Z,20.74
2019-05-19T09:31:41.549Z,20.74
2019-05-19T09:33:52.611Z,20.90
2019-05-19T09:36:03.480Z,20.76
2019-05-19T09:38:14.494Z,20.39
2019-05-19T09:40:26.775Z,20.13
2019-05-19T09:42:37.821Z,20.26
2019-05-19T09:44:48.701Z,20.31
2019-05-19T09:46:59.560Z,20.33
2019-05-19T09:49:29.216Z,20.72
2019-05-19T09:51:40.060Z,21.08
2019-05-19T09:53:50.925Z,21.22
2019-05-19T09:56:01.781Z,21.23
2019-05-19T09:58:15.804Z,21.23
2019-05-19T10:00:25.927Z,21.33
2019-05-19T10:02:36.780Z,21.59
2019-05-19T10:04:47.741Z,21.55
2019-05-19T10:06:58.719Z,21.62
2019-05-19T10:09:10.400Z,21.96
2019-05-19T10:11:28.691Z,22.03
2019-05-19T10:13:39.553Z,22.27
2019-05-19T10:15:50.545Z,22.04
2019-05-19T10:18:01.376Z,21.69
2019-05-19T10:20:12.991Z,21.37
2019-05-19T10:22:24.031Z,21.56
2019-05-19T10:24:35.015Z,21.82
2019-05-19T10:26:46.058Z,22.04
2019-05-19T10:28:56.927Z,22.35
2019-05-19T10:31:07.840Z,22.64
2019-05-19T10:33:18.691Z,22.84
2019-05-19T10:35:29.586Z,23.03
2019-05-19T10:37:40.473Z,22.83
2019-05-19T10:39:51.927Z,22.66
2019-05-19T10:42:03.101Z,22.36
2019-05-19T10:44:14.094Z,22.37
2019-05-19T10:46:24.957Z,22.44
2019-05-19T10:48:35.918Z,22.60
2019-05-19T10:50:46.789Z,22.65
2019-05-19T10:52:57.622Z,22.85
2019-05-19T10:55:08.696Z,22.83
2019-05-19T10:57:19.675Z,23.07
2019-05-19T10:59:30.623Z,23.21
2019-05-19T11:01:41.602Z,23.22
2019-05-19T11:03:52.456Z,23.29
2019-05-19T11:06:03.471Z,23.37
2019-05-19T11:08:14.313Z,23.43
2019-05-19T11:10:25.277Z,23.49
2019-05-19T11:12:36.213Z,23.53
2019-05-19T11:14:47.068Z,23.53
2019-05-19T11:16:57.950Z,23.61
2019-05-19T11:19:08.794Z,23.60
2019-05-19T11:21:19.805Z,23.54
2019-05-19T11:23:30.648Z,23.53
2019-05-19T11:25:51.156Z,23.52
2019-05-19T11:27:54.315Z,23.48
2019-05-19T11:30:05.796Z,23.50
2019-05-19T11:32:16.687Z,23.57
2019-05-19T11:34:27.548Z,23.52
2019-05-19T11:36:38.425Z,23.35
2019-05-19T11:38:49.279Z,23.24
2019-05-19T11:41:00.120Z,22.97
2019-05-19T11:43:11.214Z,22.78
2019-05-19T11:45:22.222Z,22.92
2019-05-19T11:47:33.111Z,23.05
2019-05-19T11:49:44.058Z,23.00
2019-05-19T11:51:54.910Z,22.94
2019-05-19T11:54:05.910Z,22.99
2019-05-19T11:56:16.873Z,23.21
2019-05-19T11:58:27.746Z,23.33
2019-05-19T12:00:38.710Z,23.41
2019-05-19T12:02:49.743Z,23.45
2019-05-19T12:05:00.577Z,23.48
2019-05-19T12:07:11.439Z,23.48
2019-05-19T12:09:22.308Z,23.56
2019-05-19T12:11:33.164Z,23.54
2019-05-19T12:13:44.031Z,23.53
2019-05-19T12:15:54.882Z,23.69
2019-05-19T12:18:05.883Z,23.65
2019-05-19T12:20:16.961Z,23.62
2019-05-19T12:22:27.956Z,23.61
2019-05-19T12:24:39.012Z,23.58
2019-05-19T12:26:50.013Z,23.50
2019-05-19T12:29:00.875Z,23.50
2019-05-19T12:31:11.734Z,23.48
2019-05-19T12:33:22.613Z,23.60
2019-05-19T12:35:33.550Z,23.85
2019-05-19T12:37:44.438Z,23.89
2019-05-19T12:39:55.520Z,23.92
2019-05-19T12:42:06.372Z,23.83
2019-05-19T12:44:17.357Z,23.82
2019-05-19T12:46:28.338Z,23.71
2019-05-19T12:48:39.313Z,23.71
2019-05-19T12:50:50.179Z,23.75
2019-05-19T12:53:01.155Z,23.76
2019-05-19T12:55:12.325Z,23.70
2019-05-19T12:57:23.181Z,23.62
2019-05-19T12:59:34.068Z,23.64
2019-05-19T13:01:44.922Z,23.61
2019-05-19T13:03:55.782Z,23.67
2019-05-19T13:06:06.776Z,23.70
2019-05-19T13:08:17.851Z,23.64
2019-05-19T13:10:28.762Z,23.50
2019-05-19T13:12:39.630Z,23.44
2019-05-19T13:14:50.510Z,23.48
2019-05-19T13:17:01.379Z,23.59
2019-05-19T13:19:12.210Z,23.58
2019-05-19T13:21:23.107Z,23.40
2019-05-19T13:23:33.963Z,23.22
2019-05-19T13:25:44.847Z,23.25
2019-05-19T13:27:55.689Z,23.36
2019-05-19T13:30:06.899Z,23.41
2019-05-19T13:32:17.791Z,23.42
2019-05-19T13:34:28.669Z,23.42
2019-05-19T13:36:40.421Z,23.37
2019-05-19T13:38:51.624Z,23.33
2019-05-19T13:41:02.941Z,23.09
2019-05-19T13:43:13.869Z,22.86
2019-05-19T13:45:24.753Z,22.73
2019-05-19T13:47:35.724Z,22.68
2019-05-19T13:49:46.579Z,22.74
2019-05-19T13:51:57.463Z,22.85
2019-05-19T13:54:08.418Z,22.89
2019-05-19T13:56:19.314Z,22.90
2019-05-19T13:58:30.257Z,22.90
2019-05-19T14:00:41.117Z,22.94
2019-05-19T14:02:52.085Z,22.86
2019-05-19T14:05:03.737Z,22.74
2019-05-19T14:07:14.645Z,22.74
2019-05-19T14:09:25.499Z,22.75
2019-05-19T14:11:36.338Z,22.75
2019-05-19T14:13:47.257Z,22.74
2019-05-19T14:15:58.192Z,22.97
2019-05-19T14:18:09.068Z,23.15
2019-05-19T14:20:19.941Z,23.20
2019-05-19T14:22:30.850Z,23.22
2019-05-19T14:24:41.802Z,23.23
2019-05-19T14:26:52.686Z,23.27
2019-05-19T14:29:03.657Z,23.30
2019-05-19T14:31:14.512Z,23.32
2019-05-19T14:33:25.564Z,23.30
2019-05-19T14:35:38.593Z,23.35
2019-05-19T14:37:51.418Z,23.42
2019-05-19T14:40:03.552Z,23.39
2019-05-19T14:42:18.211Z,23.46
2019-05-19T14:44:29.066Z,23.45
2019-05-19T14:46:39.943Z,23.36
2019-05-19T14:48:50.813Z,23.31
2019-05-19T14:51:01.672Z,23.30
2019-05-19T14:53:12.561Z,23.39
2019-05-19T14:55:23.521Z,23.44
2019-05-19T14:57:44.402Z,23.42
2019-05-19T14:59:47.384Z,23.47
2019-05-19T15:01:58.236Z,23.51
2019-05-19T15:04:09.110Z,23.53
2019-05-19T15:06:19.979Z,23.59
2019-05-19T15:08:30.866Z,23.63
2019-05-19T15:10:41.948Z,23.78
2019-05-19T15:12:52.896Z,23.71
2019-05-19T15:15:07.326Z,23.64
2019-05-19T15:17:18.155Z,23.56
2019-05-19T15:19:29.032Z,23.36
2019-05-19T15:21:39.984Z,23.20
2019-05-19T15:23:51.016Z,23.13
2019-05-19T15:26:01.985Z,23.04
2019-05-19T15:28:12.954Z,22.95
2019-05-19T15:30:24.004Z,22.89
2019-05-19T15:32:34.910Z,22.82
2019-05-19T15:34:45.775Z,22.66
2019-05-19T15:36:56.739Z,22.43
2019-05-19T15:39:07.623Z,21.88
2019-05-19T15:41:18.594Z,21.55
2019-05-19T15:43:29.437Z,21.08
2019-05-19T15:45:40.505Z,20.78
2019-05-19T15:47:51.517Z,20.71
2019-05-19T15:50:04.841Z,20.65
2019-05-19T15:52:17.914Z,20.57
2019-05-19T15:54:28.908Z,20.45
2019-05-19T15:56:39.845Z,20.36
2019-05-19T15:58:50.709Z,20.26
2019-05-19T16:01:01.584Z,20.24
2019-05-19T16:03:12.437Z,20.24
2019-05-19T16:05:23.318Z,20.20
2019-05-19T16:07:34.188Z,20.15
2019-05-19T16:09:45.054Z,20.03
2019-05-19T16:11:55.961Z,20.04
2019-05-19T16:14:07.050Z,19.94
2019-05-19T16:16:18.030Z,19.88
2019-05-19T16:18:28.905Z,19.82
2019-05-19T16:20:39.865Z,19.66
2019-05-19T16:22:51.015Z,19.60
2019-05-19T16:25:04.187Z,19.52
2019-05-19T16:27:15.085Z,19.50
2019-05-19T16:29:26.049Z,19.46
2019-05-19T16:31:37.026Z,19.38
2019-05-19T16:33:48.139Z,19.25
2019-05-19T16:35:59.162Z,19.14
2019-05-19T16:38:10.126Z,19.06
2019-05-19T16:40:21.179Z,18.96
2019-05-19T16:42:32.138Z,18.86
2019-05-19T16:44:43.125Z,18.78
2019-05-19T16:46:54.128Z,18.72
2019-05-19T16:49:05.184Z,18.69
2019-05-19T16:51:16.144Z,18.68
2019-05-19T16:53:27.053Z,18.71
2019-05-19T16:55:38.081Z,18.74
2019-05-19T16:57:49.110Z,18.73
2019-05-19T16:59:59.986Z,18.70
2019-05-19T17:02:11.102Z,18.74
2019-05-19T17:04:21.974Z,18.79
2019-05-19T17:06:32.845Z,18.81
2019-05-19T17:08:43.751Z,18.77
2019-05-19T17:10:54.628Z,18.81
2019-05-19T17:13:05.539Z,18.88
2019-05-19T17:15:17.700Z,18.95
2019-05-19T17:17:28.735Z,19.01
2019-05-19T17:19:39.797Z,19.07
2019-05-19T17:21:52.662Z,19.03
2019-05-19T17:24:03.695Z,18.89
2019-05-19T17:26:14.529Z,18.78
2019-05-19T17:28:25.509Z,18.62
2019-05-19T17:30:36.554Z,18.50
2019-05-19T17:32:47.615Z,18.46
2019-05-19T17:34:58.562Z,18.49
2019-05-19T17:37:09.486Z,18.40
2019-05-19T17:39:20.456Z,18.26
2019-05-19T17:41:31.320Z,18.17
2019-05-19T17:43:42.307Z,18.11
2019-05-19T17:45:53.388Z,18.06
2019-05-19T17:48:10.021Z,17.99
2019-05-19T17:50:21.222Z,17.91
2019-05-19T17:52:32.067Z,17.84
2019-05-19T17:54:43.101Z,17.79
2019-05-19T17:56:55.172Z,17.76
2019-05-19T17:59:16.090Z,17.73
2019-05-19T18:01:18.997Z,17.69
2019-05-19T18:03:30.300Z,17.68
2019-05-19T18:05:41.209Z,17.62
2019-05-19T18:07:52.066Z,17.63
2019-05-19T18:10:04.507Z,17.63
2019-05-19T18:12:15.373Z,17.63
2019-05-19T18:14:26.530Z,17.65
2019-05-19T18:16:37.828Z,17.65
2019-05-19T18:18:48.731Z,17.64
2019-05-19T18:20:59.797Z,17.59
2019-05-19T18:23:10.657Z,17.55
2019-05-19T18:25:21.741Z,17.57
2019-05-19T18:27:32.772Z,17.67
2019-05-19T18:29:44.539Z,17.76
2019-05-19T18:31:55.411Z,17.78
2019-05-19T18:34:06.387Z,17.79
2019-05-19T18:36:17.466Z,17.75
2019-05-19T18:38:30.249Z,17.78
2019-05-19T18:40:41.228Z,17.81
2019-05-19T18:42:52.210Z,17.82
2019-05-19T18:45:04.553Z,17.83
2019-05-19T18:47:15.496Z,17.82
2019-05-19T18:49:26.331Z,17.79
2019-05-19T18:51:37.216Z,17.80
2019-05-19T18:53:48.064Z,17.79
2019-05-19T18:56:00.841Z,17.76
2019-05-19T18:58:11.686Z,17.75
2019-05-19T19:00:34.390Z,17.69
2019-05-19T19:02:47.884Z,17.68
2019-05-19T19:04:58.150Z,17.69
2019-05-19T19:07:09.146Z,17.70
2019-05-19T19:09:20.145Z,17.75
2019-05-19T19:11:31.114Z,17.76
2019-05-19T19:13:42.188Z,17.75
2019-05-19T19:15:53.260Z,17.81
2019-05-19T19:18:04.413Z,17.87
2019-05-19T19:20:17.309Z,17.88
2019-05-19T19:22:28.192Z,17.82
2019-05-19T19:24:39.120Z,17.74
2019-05-19T19:26:49.977Z,17.70
2019-05-19T19:29:02.857Z,17.64
2019-05-19T19:31:13.856Z,17.63
2019-05-19T19:33:24.846Z,17.57
2019-05-19T19:35:39.197Z,17.53
2019-05-19T19:37:48.518Z,17.41
2019-05-19T19:39:59.539Z,17.31
2019-05-19T19:42:10.638Z,17.27
2019-05-19T19:44:21.638Z,17.23
2019-05-19T19:46:32.601Z,17.24
2019-05-19T19:48:43.489Z,17.22
2019-05-19T19:50:54.421Z,17.22
2019-05-19T19:53:05.430Z,17.20
2019-05-19T19:55:16.401Z,17.11
2019-05-19T19:57:29.294Z,17.00
2019-05-19T19:59:40.155Z,16.97
2019-05-19T20:01:51.066Z,17.09
2019-05-19T20:04:02.043Z,17.09
2019-05-19T20:06:13.170Z,17.08
2019-05-19T20:08:24.036Z,17.03
2019-05-19T20:10:35.696Z,16.86
2019-05-19T20:12:46.571Z,16.74
2019-05-19T20:14:57.472Z,16.70
2019-05-19T20:17:08.334Z,16.78
2019-05-19T20:19:19.244Z,16.85
2019-05-19T20:21:30.290Z,16.88
2019-05-19T20:23:41.182Z,16.85
2019-05-19T20:25:52.137Z,16.87
2019-05-19T20:28:02.992Z,16.82
2019-05-19T20:30:13.985Z,16.80
2019-05-19T20:32:24.963Z,16.79
2019-05-19T20:34:35.829Z,16.79
2019-05-19T20:36:48.668Z,16.83
2019-05-19T20:38:59.544Z,16.86
2019-05-19T20:41:10.411Z,16.92
2019-05-19T20:43:21.275Z,17.02
2019-05-19T20:45:32.473Z,17.01
2019-05-19T20:47:43.538Z,16.84
2019-05-19T20:49:54.559Z,16.61
2019-05-19T20:52:05.528Z,16.56
2019-05-19T20:54:16.402Z,16.52
2019-05-19T20:56:27.246Z,16.51
2019-05-19T20:58:38.081Z,16.54
2019-05-19T21:00:51.344Z,16.49
2019-05-19T21:03:01.835Z,16.45
2019-05-19T21:05:12.798Z,16.34
2019-05-19T21:07:23.733Z,16.36
2019-05-19T21:09:34.765Z,16.29
2019-05-19T21:11:45.598Z,16.25
2019-05-19T21:13:56.464Z,16.26
2019-05-19T21:16:07.318Z,16.29
2019-05-19T21:18:18.275Z,16.28
2019-05-19T21:20:29.176Z,16.15
2019-05-19T21:22:40.049Z,16.11
2019-05-19T21:24:50.905Z,16.15
2019-05-19T21:27:01.743Z,16.08
2019-05-19T21:29:12.596Z,16.02
2019-05-19T21:31:23.499Z,15.99
2019-05-19T21:33:34.488Z,15.97
2019-05-19T21:35:47.257Z,15.89
2019-05-19T21:37:58.105Z,15.82
2019-05-19T21:40:09.467Z,15.78
2019-05-19T21:42:20.454Z,15.66
2019-05-19T21:44:31.394Z,15.63
2019-05-19T21:46:44.365Z,15.53
2019-05-19T21:48:55.207Z,15.31
2019-05-19T21:51:06.203Z,15.25
2019-05-19T21:53:17.044Z,15.22
2019-05-19T21:55:28.005Z,15.15
2019-05-19T21:57:38.856Z,15.12
2019-05-19T21:59:49.725Z,15.12
2019-05-19T22:02:00.583Z,15.18
2019-05-19T22:04:11.439Z,15.18
2019-05-19T22:06:24.307Z,15.17
2019-05-19T22:08:35.398Z,15.20
2019-05-19T22:10:46.344Z,15.15
2019-05-19T22:12:57.206Z,15.00
2019-05-19T22:15:10.363Z,14.95
2019-05-19T22:17:21.244Z,14.99
2019-05-19T22:19:32.146Z,15.05
2019-05-19T22:21:43.109Z,15.09
2019-05-19T22:23:53.980Z,15.14
2019-05-19T22:26:04.909Z,15.19
2019-05-19T22:28:15.793Z,15.22
2019-05-19T22:30:26.870Z,15.27
2019-05-19T22:32:37.789Z,15.25
2019-05-19T22:34:48.683Z,15.25
2019-05-19T22:36:59.474Z,15.26
2019-05-19T22:39:10.333Z,15.31
2019-05-19T22:41:21.170Z,15.33
2019-05-19T22:43:32.037Z,15.30
2019-05-19T22:45:42.872Z,15.26
2019-05-19T22:47:53.748Z,15.24
2019-05-19T22:50:06.209Z,15.21
2019-05-19T22:52:17.066Z,15.17
2019-05-19T22:54:27.948Z,15.14
2019-05-19T22:56:38.794Z,15.10
2019-05-19T22:58:49.685Z,15.02
2019-05-19T23:01:00.650Z,15.02
2019-05-19T23:03:11.526Z,15.03
2019-05-19T23:05:22.415Z,15.07
2019-05-19T23:07:33.379Z,15.15
2019-05-19T23:09:44.350Z,15.21
2019-05-19T23:11:55.204Z,15.22
2019-05-19T23:14:06.174Z,15.23
2019-05-19T23:16:16.999Z,15.28
2019-05-19T23:18:27.869Z,15.26
2019-05-19T23:20:39.091Z,15.25
2019-05-19T23:22:50.106Z,15.21
2019-05-19T23:25:04.831Z,15.21
2019-05-19T23:27:15.656Z,15.14
2019-05-19T23:29:26.618Z,15.11
2019-05-19T23:31:37.499Z,15.02
2019-05-19T23:33:48.471Z,15.02
2019-05-19T23:35:59.338Z,14.99
2019-05-19T23:38:10.181Z,14.96
2019-05-19T23:40:21.030Z,14.97
2019-05-19T23:42:32.018Z,14.93
2019-05-19T23:44:42.899Z,14.93
2019-05-19T23:46:53.722Z,14.96
2019-05-19T23:49:04.595Z,14.98
2019-05-19T23:51:15.426Z,14.96
2019-05-19T23:53:26.269Z,14.93
2019-05-19T23:55:37.138Z,14.96
2019-05-19T23:57:47.986Z,14.97
2019-05-19T23:59:58.836Z,14.95
